createdAt,value
2019-04-29T00:00:49.074Z,30.07
2019-04-29T00:01:26.054Z,30.09
2019-04-29T00:02:02.197Z,30.09
2019-04-29T00:02:38.378Z,30.16
2019-04-29T00:03:14.539Z,30.17
2019-04-29T00:03:50.783Z,30.18
2019-04-29T00:04:27.014Z,30.20
2019-04-29T00:05:04.706Z,30.23
2019-04-29T00:05:40.890Z,30.23
2019-04-29T00:06:17.052Z,30.24
2019-04-29T00:06:53.257Z,30.27
2019-04-29T00:07:29.401Z,30.24
2019-04-29T00:08:05.479Z,30.26
2019-04-29T00:08:41.720Z,30.26
2019-04-29T00:09:19.226Z,30.28
2019-04-29T00:09:55.319Z,30.28
2019-04-29T00:10:31.501Z,30.36
2019-04-29T00:11:07.652Z,30.36
2019-04-29T00:11:43.800Z,30.32
2019-04-29T00:12:20.197Z,30.33
2019-04-29T00:12:56.365Z,30.38
2019-04-29T00:13:32.525Z,30.34
2019-04-29T00:14:09.903Z,30.37
2019-04-29T00:14:54.243Z,30.40
2019-04-29T00:15:52.142Z,30.40
2019-04-29T00:16:40.141Z,30.41
2019-04-29T00:17:21.664Z,30.41
2019-04-29T00:18:01.132Z,30.35
2019-04-29T00:18:56.103Z,30.35
2019-04-29T00:19:40.123Z,30.40
2019-04-29T00:20:37.823Z,30.41
2019-04-29T00:21:13.906Z,30.40
2019-04-29T00:21:50.265Z,30.40
2019-04-29T00:22:26.456Z,30.41
2019-04-29T00:23:02.598Z,30.38
2019-04-29T00:23:38.634Z,30.37
2019-04-29T00:24:14.753Z,30.43
2019-04-29T00:24:50.884Z,30.45
2019-04-29T00:25:27.029Z,30.45
2019-04-29T00:26:03.285Z,30.45
2019-04-29T00:26:40.112Z,30.45
2019-04-29T00:27:16.468Z,30.48
2019-04-29T00:27:52.523Z,30.44
2019-04-29T00:28:28.640Z,30.50
2019-04-29T00:29:04.927Z,30.50
2019-04-29T00:29:43.804Z,30.51
2019-04-29T00:30:22.253Z,30.53
2019-04-29T00:30:58.387Z,30.50
2019-04-29T00:31:34.493Z,30.52
2019-04-29T00:32:11.614Z,30.57
2019-04-29T00:32:47.756Z,30.54
2019-04-29T00:33:23.999Z,30.58
2019-04-29T00:34:00.091Z,30.58
2019-04-29T00:34:36.155Z,30.60
2019-04-29T00:35:12.237Z,30.62
2019-04-29T00:35:48.456Z,30.63
2019-04-29T00:36:26.465Z,30.65
2019-04-29T00:37:21.588Z,30.67
2019-04-29T00:38:31.393Z,30.67
2019-04-29T00:39:45.159Z,30.72
2019-04-29T00:40:40.148Z,30.72
2019-04-29T00:41:40.980Z,30.84
2019-04-29T00:42:35.935Z,30.84
2019-04-29T00:43:36.774Z,30.87
2019-04-29T00:44:14.439Z,30.90
2019-04-29T00:44:50.398Z,30.93
2019-04-29T00:45:27.292Z,30.94
2019-04-29T00:46:03.481Z,30.96
2019-04-29T00:46:39.749Z,30.96
2019-04-29T00:47:16.086Z,30.94
2019-04-29T00:47:52.128Z,30.97
2019-04-29T00:48:28.196Z,30.99
2019-04-29T00:49:04.727Z,31.01
2019-04-29T00:49:40.835Z,31.07
2019-04-29T00:50:16.929Z,31.10
2019-04-29T00:50:53.074Z,31.08
2019-04-29T00:51:29.348Z,31.16
2019-04-29T00:52:05.580Z,31.20
2019-04-29T00:52:41.689Z,31.18
2019-04-29T00:53:17.842Z,31.25
2019-04-29T00:53:57.504Z,31.26
2019-04-29T00:54:39.125Z,31.32
2019-04-29T00:55:18.111Z,31.32
2019-04-29T00:55:54.335Z,31.35
2019-04-29T00:56:30.512Z,31.37
2019-04-29T00:57:09.253Z,31.39
2019-04-29T00:57:45.415Z,31.41
2019-04-29T00:58:21.467Z,31.43
2019-04-29T00:58:57.595Z,31.44
2019-04-29T00:59:33.720Z,31.44
2019-04-29T01:00:11.982Z,31.47
2019-04-29T01:00:48.112Z,31.48
2019-04-29T01:01:26.065Z,31.44
2019-04-29T01:02:02.030Z,31.51
2019-04-29T01:02:38.214Z,31.53
2019-04-29T01:03:14.324Z,31.53
2019-04-29T01:03:51.151Z,31.56
2019-04-29T01:04:27.222Z,31.57
2019-04-29T01:05:03.416Z,31.58
2019-04-29T01:05:40.123Z,31.59
2019-04-29T01:06:16.295Z,31.60
2019-04-29T01:06:52.465Z,31.61
2019-04-29T01:07:28.564Z,31.64
2019-04-29T01:08:04.646Z,31.66
2019-04-29T01:08:40.841Z,31.66
2019-04-29T01:09:17.103Z,31.68
2019-04-29T01:09:53.115Z,31.69
2019-04-29T01:10:29.376Z,31.69
2019-04-29T01:11:05.435Z,31.70
2019-04-29T01:11:41.414Z,31.70
2019-04-29T01:12:17.547Z,31.71
2019-04-29T01:12:53.645Z,31.72
2019-04-29T01:13:29.729Z,31.73
2019-04-29T01:14:05.880Z,31.74
2019-04-29T01:14:42.050Z,31.75
2019-04-29T01:15:20.422Z,31.74
2019-04-29T01:15:56.555Z,31.77
2019-04-29T01:16:32.744Z,31.78
2019-04-29T01:17:08.859Z,31.79
2019-04-29T01:17:45.110Z,31.81
2019-04-29T01:18:21.179Z,31.83
2019-04-29T01:18:58.887Z,31.85
2019-04-29T01:19:35.075Z,31.85
2019-04-29T01:20:11.435Z,31.85
2019-04-29T01:20:47.750Z,31.85
2019-04-29T01:21:23.896Z,31.87
2019-04-29T01:22:00.008Z,31.88
2019-04-29T01:22:36.303Z,31.89
2019-04-29T01:23:12.408Z,31.90
2019-04-29T01:23:48.578Z,31.91
2019-04-29T01:24:24.682Z,31.93
2019-04-29T01:25:00.801Z,31.95
2019-04-29T01:25:37.044Z,31.96
2019-04-29T01:26:42.447Z,31.97
2019-04-29T01:27:22.850Z,31.98
2019-04-29T01:28:05.319Z,31.99
2019-04-29T01:28:49.340Z,31.99
2019-04-29T01:29:24.395Z,31.98
2019-04-29T01:30:00.530Z,32.00
2019-04-29T01:31:01.692Z,32.02
2019-04-29T01:31:37.935Z,32.03
2019-04-29T01:32:14.061Z,32.04
2019-04-29T01:32:50.166Z,32.06
2019-04-29T01:33:26.479Z,32.07
2019-04-29T01:34:17.680Z,32.07
2019-04-29T01:34:55.113Z,32.08
2019-04-29T01:35:31.253Z,32.09
2019-04-29T01:36:24.887Z,32.10
2019-04-29T01:37:00.978Z,32.11
2019-04-29T01:37:41.639Z,32.13
2019-04-29T01:38:17.778Z,32.16
2019-04-29T01:38:55.825Z,32.18
2019-04-29T01:39:45.354Z,32.20
2019-04-29T01:40:39.694Z,32.23
2019-04-29T01:41:18.451Z,32.28
2019-04-29T01:42:09.904Z,32.31
2019-04-29T01:42:46.196Z,32.31
2019-04-29T01:43:22.476Z,32.31
2019-04-29T01:44:08.253Z,32.33
2019-04-29T01:44:44.376Z,32.34
2019-04-29T01:45:20.552Z,32.36
2019-04-29T01:45:56.696Z,32.37
2019-04-29T01:46:32.869Z,32.38
2019-04-29T01:47:09.047Z,32.40
2019-04-29T01:47:45.160Z,32.43
2019-04-29T01:48:21.387Z,32.48
2019-04-29T01:48:57.565Z,32.52
2019-04-29T01:49:33.649Z,32.57
2019-04-29T01:50:09.821Z,32.62
2019-04-29T01:50:45.954Z,32.67
2019-04-29T01:51:22.042Z,32.70
2019-04-29T01:51:59.576Z,32.74
2019-04-29T01:52:36.740Z,32.78
2019-04-29T01:53:12.934Z,32.81
2019-04-29T01:53:49.041Z,32.84
2019-04-29T01:54:25.088Z,32.91
2019-04-29T01:55:01.231Z,33.06
2019-04-29T01:55:37.338Z,33.15
2019-04-29T01:56:13.424Z,33.18
2019-04-29T01:56:49.512Z,33.15
2019-04-29T01:57:28.392Z,33.14
2019-04-29T01:58:05.649Z,33.14
2019-04-29T01:58:41.853Z,33.14
2019-04-29T01:59:17.967Z,33.14
2019-04-29T01:59:54.009Z,33.14
2019-04-29T02:00:30.159Z,33.13
2019-04-29T02:01:06.365Z,33.13
2019-04-29T02:01:42.505Z,33.16
2019-04-29T02:02:18.776Z,33.18
2019-04-29T02:02:55.209Z,33.20
2019-04-29T02:03:31.323Z,33.24
2019-04-29T02:04:10.448Z,33.31
2019-04-29T02:04:46.645Z,33.32
2019-04-29T02:05:22.756Z,33.34
2019-04-29T02:05:59.075Z,33.37
2019-04-29T02:06:35.178Z,33.39
2019-04-29T02:07:11.185Z,33.43
2019-04-29T02:07:47.284Z,33.46
2019-04-29T02:08:24.590Z,33.51
2019-04-29T02:09:01.730Z,33.55
2019-04-29T02:09:56.679Z,33.68
2019-04-29T02:10:34.293Z,33.87
2019-04-29T02:11:10.404Z,33.95
2019-04-29T02:11:46.595Z,34.16
2019-04-29T02:12:22.536Z,34.34
2019-04-29T02:12:58.594Z,34.52
2019-04-29T02:13:34.730Z,34.53
2019-04-29T02:14:10.773Z,34.60
2019-04-29T02:14:47.004Z,34.68
2019-04-29T02:15:23.070Z,34.71
2019-04-29T02:15:59.163Z,34.81
2019-04-29T02:16:35.175Z,34.86
2019-04-29T02:17:11.332Z,34.81
2019-04-29T02:17:47.400Z,34.83
2019-04-29T02:18:23.499Z,34.79
2019-04-29T02:18:59.591Z,34.76
2019-04-29T02:19:35.686Z,34.74
2019-04-29T02:20:11.862Z,34.72
2019-04-29T02:20:50.180Z,34.70
2019-04-29T02:21:26.305Z,34.70
2019-04-29T02:22:33.199Z,34.69
2019-04-29T02:23:20.726Z,34.71
2019-04-29T02:24:27.607Z,34.82
2019-04-29T02:25:22.551Z,34.83
2019-04-29T02:25:58.556Z,34.85
2019-04-29T02:26:34.607Z,34.94
2019-04-29T02:27:10.677Z,34.96
2019-04-29T02:27:46.798Z,34.89
2019-04-29T02:28:23.043Z,34.86
2019-04-29T02:28:59.100Z,34.82
2019-04-29T02:29:35.117Z,34.80
2019-04-29T02:30:11.740Z,34.76
2019-04-29T02:30:49.575Z,34.73
2019-04-29T02:31:41.223Z,34.71
2019-04-29T02:32:17.366Z,34.70
2019-04-29T02:32:53.499Z,34.66
2019-04-29T02:33:29.873Z,34.65
2019-04-29T02:34:06.009Z,34.64
2019-04-29T02:34:42.121Z,34.62
2019-04-29T02:35:18.197Z,34.59
2019-04-29T02:35:55.782Z,34.58
2019-04-29T02:36:31.983Z,34.56
2019-04-29T02:37:09.674Z,34.56
2019-04-29T02:37:45.738Z,34.55
2019-04-29T02:38:43.522Z,34.55
2019-04-29T02:39:32.653Z,34.55
2019-04-29T02:40:15.052Z,34.53
2019-04-29T02:41:00.441Z,34.52
2019-04-29T02:41:55.535Z,34.51
2019-04-29T02:42:43.291Z,34.50
2019-04-29T02:43:22.294Z,34.49
2019-04-29T02:43:59.440Z,34.49
2019-04-29T02:44:38.334Z,34.48
2019-04-29T02:45:22.334Z,34.48
2019-04-29T02:45:59.932Z,34.47
2019-04-29T02:46:36.096Z,34.49
2019-04-29T02:47:12.184Z,34.51
2019-04-29T02:47:48.409Z,34.53
2019-04-29T02:48:29.114Z,34.56
2019-04-29T02:49:03.040Z,34.55
2019-04-29T02:49:39.085Z,34.59
2019-04-29T02:50:15.200Z,34.61
2019-04-29T02:50:51.342Z,34.65
2019-04-29T02:51:49.077Z,34.69
2019-04-29T02:52:26.076Z,34.77
2019-04-29T02:53:02.141Z,35.00
2019-04-29T02:53:38.312Z,35.17
2019-04-29T02:54:14.451Z,35.28
2019-04-29T02:54:51.514Z,35.33
2019-04-29T02:55:35.908Z,35.55
2019-04-29T02:56:11.890Z,35.71
2019-04-29T02:56:52.252Z,35.77
2019-04-29T02:57:33.781Z,35.86
2019-04-29T02:58:24.679Z,35.94
2019-04-29T02:59:05.299Z,35.97
2019-04-29T02:59:44.481Z,36.04
2019-04-29T03:00:42.748Z,36.15
2019-04-29T03:01:32.951Z,36.26
2019-04-29T03:02:24.301Z,36.45
2019-04-29T03:03:19.290Z,36.69
2019-04-29T03:04:01.926Z,36.88
2019-04-29T03:04:56.885Z,36.98
2019-04-29T03:05:40.068Z,36.99
2019-04-29T03:06:16.660Z,37.05
2019-04-29T03:06:54.278Z,37.11
2019-04-29T03:07:30.444Z,37.14
2019-04-29T03:08:06.631Z,37.13
2019-04-29T03:08:42.699Z,37.10
2019-04-29T03:09:18.804Z,37.05
2019-04-29T03:09:54.778Z,37.03
2019-04-29T03:10:30.839Z,37.05
2019-04-29T03:11:07.084Z,37.09
2019-04-29T03:11:43.306Z,37.14
2019-04-29T03:12:19.385Z,37.15
2019-04-29T03:12:57.842Z,37.19
2019-04-29T03:13:33.904Z,37.19
2019-04-29T03:14:10.692Z,37.14
2019-04-29T03:14:46.822Z,37.18
2019-04-29T03:15:32.560Z,37.10
2019-04-29T03:16:08.690Z,37.09
2019-04-29T03:16:47.693Z,37.09
2019-04-29T03:17:23.791Z,37.17
2019-04-29T03:17:59.822Z,37.22
2019-04-29T03:18:42.808Z,37.21
2019-04-29T03:19:24.242Z,37.23
2019-04-29T03:20:18.373Z,37.32
2019-04-29T03:21:22.214Z,37.25
2019-04-29T03:21:59.742Z,37.21
2019-04-29T03:22:37.598Z,37.22
2019-04-29T03:23:21.305Z,37.20
2019-04-29T03:23:57.399Z,37.22
2019-04-29T03:24:33.662Z,37.24
2019-04-29T03:25:10.761Z,37.24
2019-04-29T03:25:46.877Z,37.26
2019-04-29T03:26:23.114Z,37.28
2019-04-29T03:26:59.195Z,37.34
2019-04-29T03:27:35.320Z,37.40
2019-04-29T03:28:11.396Z,37.44
2019-04-29T03:28:47.498Z,37.46
2019-04-29T03:29:23.592Z,37.47
2019-04-29T03:29:59.771Z,37.47
2019-04-29T03:30:35.984Z,37.43
2019-04-29T03:31:12.189Z,37.35
2019-04-29T03:31:48.293Z,37.29
2019-04-29T03:32:26.701Z,37.23
2019-04-29T03:33:02.894Z,37.19
2019-04-29T03:33:39.064Z,37.16
2019-04-29T03:34:15.749Z,37.14
2019-04-29T03:34:51.862Z,37.10
2019-04-29T03:35:28.065Z,37.09
2019-04-29T03:36:04.358Z,37.07
2019-04-29T03:36:40.430Z,37.04
2019-04-29T03:37:16.675Z,37.09
2019-04-29T03:37:52.703Z,37.10
2019-04-29T03:38:28.984Z,37.09
2019-04-29T03:39:05.644Z,37.14
2019-04-29T03:39:41.740Z,37.17
2019-04-29T03:40:17.914Z,37.22
2019-04-29T03:40:54.352Z,37.22
2019-04-29T03:41:30.561Z,37.23
2019-04-29T03:42:07.544Z,37.23
2019-04-29T03:42:44.529Z,37.23
2019-04-29T03:43:21.301Z,37.21
2019-04-29T03:43:57.527Z,37.22
2019-04-29T03:44:33.776Z,37.23
2019-04-29T03:45:10.062Z,37.28
2019-04-29T03:45:46.249Z,37.30
2019-04-29T03:46:22.380Z,37.33
2019-04-29T03:46:59.526Z,37.30
2019-04-29T03:47:35.668Z,37.31
2019-04-29T03:48:11.903Z,37.23
2019-04-29T03:48:47.948Z,37.31
2019-04-29T03:49:24.074Z,37.33
2019-04-29T03:50:00.138Z,37.34
2019-04-29T03:50:36.335Z,37.32
2019-04-29T03:51:12.433Z,37.32
2019-04-29T03:51:49.317Z,37.35
2019-04-29T03:52:25.749Z,37.38
2019-04-29T03:53:01.912Z,37.36
2019-04-29T03:53:38.195Z,37.37
2019-04-29T03:54:14.607Z,37.36
2019-04-29T03:54:50.800Z,37.34
2019-04-29T03:55:38.804Z,37.36
2019-04-29T03:56:04.986Z,37.39
2019-04-29T03:56:43.963Z,37.44
2019-04-29T03:57:21.771Z,37.42
2019-04-29T03:57:59.537Z,37.47
2019-04-29T03:58:35.827Z,37.47
2019-04-29T03:59:12.145Z,37.47
2019-04-29T03:59:48.439Z,37.48
2019-04-29T04:00:24.771Z,37.48
2019-04-29T04:01:09.167Z,37.47
2019-04-29T04:02:01.181Z,37.47
2019-04-29T04:02:44.381Z,37.59
2019-04-29T04:03:39.505Z,37.65
2019-04-29T04:04:25.876Z,37.72
2019-04-29T04:05:11.503Z,37.75
2019-04-29T04:05:53.001Z,37.73
2019-04-29T04:06:43.512Z,37.75
2019-04-29T04:07:36.810Z,37.74
2019-04-29T04:08:19.142Z,37.69
2019-04-29T04:09:05.988Z,37.75
2019-04-29T04:09:37.721Z,37.82
2019-04-29T04:10:16.330Z,37.87
2019-04-29T04:10:52.703Z,37.89
2019-04-29T04:11:28.925Z,37.91
2019-04-29T04:12:05.524Z,37.90
2019-04-29T04:12:41.964Z,37.94
2019-04-29T04:13:18.133Z,37.95
2019-04-29T04:13:54.331Z,37.96
2019-04-29T04:14:30.520Z,37.92
2019-04-29T04:15:06.710Z,37.87
2019-04-29T04:15:42.954Z,37.89
2019-04-29T04:16:50.605Z,37.94
2019-04-29T04:17:50.318Z,37.97
2019-04-29T04:18:30.663Z,38.03
2019-04-29T04:19:08.251Z,38.12
2019-04-29T04:19:44.513Z,38.19
2019-04-29T04:20:21.042Z,38.22
2019-04-29T04:20:57.293Z,38.30
2019-04-29T04:21:33.441Z,38.32
2019-04-29T04:22:09.580Z,38.34
2019-04-29T04:22:49.096Z,38.32
2019-04-29T04:23:25.180Z,38.40
2019-04-29T04:24:01.307Z,38.46
2019-04-29T04:24:37.491Z,38.49
2019-04-29T04:25:14.906Z,38.55
2019-04-29T04:25:51.782Z,38.61
2019-04-29T04:26:29.284Z,38.69
2019-04-29T04:27:05.354Z,38.78
2019-04-29T04:27:41.471Z,38.82
2019-04-29T04:28:17.593Z,38.89
2019-04-29T04:28:56.766Z,38.92
2019-04-29T04:29:32.845Z,38.95
2019-04-29T04:30:09.083Z,38.97
2019-04-29T04:30:45.174Z,38.94
2019-04-29T04:31:22.746Z,38.95
2019-04-29T04:31:58.934Z,38.97
2019-04-29T04:32:35.002Z,39.03
2019-04-29T04:33:11.318Z,39.12
2019-04-29T04:33:47.501Z,39.12
2019-04-29T04:34:23.594Z,39.16
2019-04-29T04:35:01.872Z,39.18
2019-04-29T04:35:38.096Z,39.20
2019-04-29T04:36:14.223Z,39.17
2019-04-29T04:36:50.476Z,39.20
2019-04-29T04:37:26.592Z,39.20
2019-04-29T04:38:02.656Z,39.14
2019-04-29T04:38:40.296Z,39.12
2019-04-29T04:39:16.363Z,39.07
2019-04-29T04:39:52.564Z,38.96
2019-04-29T04:40:35.898Z,38.90
2019-04-29T04:41:12.048Z,38.85
2019-04-29T04:41:49.349Z,38.80
2019-04-29T04:42:29.784Z,38.78
2019-04-29T04:43:04.361Z,38.74
2019-04-29T04:43:43.037Z,38.68
2019-04-29T04:44:19.087Z,38.60
2019-04-29T04:44:55.165Z,38.55
2019-04-29T04:45:31.314Z,38.53
2019-04-29T04:46:07.490Z,38.49
2019-04-29T04:46:43.792Z,38.50
2019-04-29T04:47:20.700Z,38.43
2019-04-29T04:47:56.770Z,38.43
2019-04-29T04:48:32.883Z,38.42
2019-04-29T04:49:09.024Z,38.51
2019-04-29T04:49:45.039Z,38.58
2019-04-29T04:50:21.133Z,38.69
2019-04-29T04:50:58.398Z,38.81
2019-04-29T04:51:34.598Z,38.88
2019-04-29T04:52:10.689Z,38.99
2019-04-29T04:52:46.795Z,39.06
2019-04-29T04:53:22.895Z,39.06
2019-04-29T04:53:58.939Z,39.02
2019-04-29T04:54:35.095Z,39.01
2019-04-29T04:55:11.377Z,38.97
2019-04-29T04:55:48.303Z,38.91
2019-04-29T04:56:24.442Z,38.92
2019-04-29T04:57:00.621Z,38.87
2019-04-29T04:57:36.657Z,38.82
2019-04-29T04:58:12.698Z,38.73
2019-04-29T04:58:48.631Z,38.67
2019-04-29T04:59:24.710Z,38.63
2019-04-29T05:00:01.474Z,38.59
2019-04-29T05:00:38.016Z,38.57
2019-04-29T05:01:14.121Z,38.54
2019-04-29T05:01:50.411Z,38.48
2019-04-29T05:02:29.314Z,38.45
2019-04-29T05:03:06.898Z,38.42
2019-04-29T05:03:42.977Z,38.41
2019-04-29T05:04:19.086Z,38.39
2019-04-29T05:04:55.217Z,38.40
2019-04-29T05:05:31.622Z,38.42
2019-04-29T05:06:07.713Z,38.43
2019-04-29T05:06:43.957Z,38.40
2019-04-29T05:07:20.062Z,38.41
2019-04-29T05:07:56.183Z,38.38
2019-04-29T05:08:32.307Z,38.38
2019-04-29T05:09:08.582Z,38.38
2019-04-29T05:09:46.323Z,38.38
2019-04-29T05:10:22.487Z,38.35
2019-04-29T05:10:58.534Z,38.29
2019-04-29T05:11:34.714Z,38.22
2019-04-29T05:12:13.897Z,38.16
2019-04-29T05:12:49.856Z,38.09
2019-04-29T05:13:28.423Z,38.01
2019-04-29T05:14:03.876Z,37.95
2019-04-29T05:14:39.978Z,37.89
2019-04-29T05:15:16.308Z,37.85
2019-04-29T05:15:52.359Z,37.79
2019-04-29T05:16:28.367Z,37.73
2019-04-29T05:17:07.225Z,37.67
2019-04-29T05:17:44.786Z,37.61
2019-04-29T05:18:20.904Z,37.57
2019-04-29T05:18:57.019Z,37.52
2019-04-29T05:19:33.095Z,37.48
2019-04-29T05:20:09.231Z,37.49
2019-04-29T05:20:45.311Z,37.44
2019-04-29T05:21:21.338Z,37.40
2019-04-29T05:21:57.438Z,37.35
2019-04-29T05:22:33.574Z,37.32
2019-04-29T05:23:09.803Z,37.31
2019-04-29T05:23:45.792Z,37.33
2019-04-29T05:24:21.928Z,37.35
2019-04-29T05:24:58.064Z,37.31
2019-04-29T05:25:35.519Z,37.27
2019-04-29T05:26:12.389Z,37.29
2019-04-29T05:26:48.472Z,37.26
2019-04-29T05:27:24.622Z,37.20
2019-04-29T05:28:00.691Z,37.15
2019-04-29T05:28:37.078Z,37.06
2019-04-29T05:29:32.746Z,37.00
2019-04-29T05:30:09.030Z,36.89
2019-04-29T05:30:47.834Z,36.75
2019-04-29T05:31:23.898Z,36.66
2019-04-29T05:32:00.094Z,36.62
2019-04-29T05:32:36.330Z,36.57
2019-04-29T05:33:12.390Z,36.54
2019-04-29T05:33:48.466Z,36.46
2019-04-29T05:34:26.438Z,36.44
2019-04-29T05:35:04.743Z,36.41
2019-04-29T05:36:05.868Z,36.35
2019-04-29T05:36:48.652Z,36.27
2019-04-29T05:37:49.179Z,36.22
2019-04-29T05:38:49.817Z,36.17
2019-04-29T05:39:29.429Z,36.03
2019-04-29T05:40:05.596Z,35.96
2019-04-29T05:40:44.233Z,35.90
2019-04-29T05:41:21.198Z,35.86
2019-04-29T05:41:57.186Z,35.86
2019-04-29T05:42:33.181Z,35.81
2019-04-29T05:43:11.409Z,35.81
2019-04-29T05:43:57.123Z,35.78
2019-04-29T05:44:54.889Z,35.77
2019-04-29T05:45:36.931Z,35.74
2019-04-29T05:46:23.243Z,35.71
2019-04-29T05:47:18.309Z,35.70
2019-04-29T05:48:01.667Z,35.69
2019-04-29T05:48:37.807Z,35.65
2019-04-29T05:49:15.927Z,35.64
2019-04-29T05:50:11.978Z,35.62
2019-04-29T05:50:58.105Z,35.61
2019-04-29T05:51:49.029Z,35.58
2019-04-29T05:52:42.103Z,35.57
2019-04-29T05:53:22.165Z,35.57
2019-04-29T05:53:59.462Z,35.54
2019-04-29T05:54:36.249Z,35.54
2019-04-29T05:55:13.714Z,35.50
2019-04-29T05:55:52.654Z,35.51
2019-04-29T05:56:28.841Z,35.48
2019-04-29T05:57:04.985Z,35.46
2019-04-29T05:57:41.166Z,35.44
2019-04-29T05:58:17.162Z,35.44
2019-04-29T05:58:53.411Z,35.44
2019-04-29T05:59:29.503Z,35.44
2019-04-29T06:00:06.071Z,35.46
2019-04-29T06:00:54.310Z,35.47
2019-04-29T06:01:31.836Z,35.46
2019-04-29T06:02:08.012Z,35.44
2019-04-29T06:02:44.065Z,35.44
2019-04-29T06:03:22.214Z,35.43
2019-04-29T06:03:58.297Z,35.42
2019-04-29T06:04:34.377Z,35.43
2019-04-29T06:05:10.589Z,35.43
2019-04-29T06:05:46.716Z,35.41
2019-04-29T06:06:22.939Z,35.42
2019-04-29T06:06:59.312Z,35.42
2019-04-29T06:07:35.301Z,35.42
2019-04-29T06:08:11.478Z,35.44
2019-04-29T06:08:47.566Z,35.42
2019-04-29T06:09:23.658Z,35.44
2019-04-29T06:09:59.708Z,35.46
2019-04-29T06:10:35.799Z,35.47
2019-04-29T06:11:12.010Z,35.49
2019-04-29T06:11:49.648Z,35.51
2019-04-29T06:12:25.865Z,35.53
2019-04-29T06:13:01.957Z,35.54
2019-04-29T06:13:39.503Z,35.55
2019-04-29T06:14:15.571Z,35.56
2019-04-29T06:14:51.692Z,35.54
2019-04-29T06:15:27.750Z,35.50
2019-04-29T06:16:03.767Z,35.50
2019-04-29T06:16:39.857Z,35.52
2019-04-29T06:17:16.024Z,35.55
2019-04-29T06:17:52.105Z,35.58
2019-04-29T06:18:28.172Z,35.62
2019-04-29T06:19:06.056Z,35.63
2019-04-29T06:19:42.136Z,35.65
2019-04-29T06:20:22.616Z,35.69
2019-04-29T06:21:08.215Z,35.71
2019-04-29T06:21:35.208Z,35.75
2019-04-29T06:22:11.315Z,35.80
2019-04-29T06:22:47.377Z,35.88
2019-04-29T06:23:24.327Z,35.98
2019-04-29T06:24:04.513Z,36.10
2019-04-29T06:24:41.099Z,36.18
2019-04-29T06:25:16.187Z,36.42
2019-04-29T06:25:52.293Z,36.57
2019-04-29T06:26:28.448Z,36.72
2019-04-29T06:27:04.524Z,36.84
2019-04-29T06:27:40.571Z,36.90
2019-04-29T06:28:16.683Z,36.97
2019-04-29T06:28:52.762Z,37.09
2019-04-29T06:29:28.981Z,37.17
2019-04-29T06:30:05.334Z,37.34
2019-04-29T06:30:45.242Z,37.52
2019-04-29T06:31:19.494Z,37.70
2019-04-29T06:31:55.611Z,37.81
2019-04-29T06:32:31.737Z,37.89
2019-04-29T06:33:07.870Z,38.03
2019-04-29T06:33:43.956Z,38.10
2019-04-29T06:34:20.022Z,38.22
2019-04-29T06:34:56.038Z,38.34
2019-04-29T06:35:32.147Z,38.41
2019-04-29T06:36:08.347Z,38.43
2019-04-29T06:36:44.615Z,38.43
2019-04-29T06:37:20.626Z,38.46
2019-04-29T06:37:56.706Z,38.43
2019-04-29T06:38:32.729Z,38.40
2019-04-29T06:39:09.383Z,38.45
2019-04-29T06:39:45.452Z,38.45
2019-04-29T06:40:21.569Z,38.44
2019-04-29T06:40:57.604Z,38.40
2019-04-29T06:41:33.711Z,38.36
2019-04-29T06:42:09.786Z,38.35
2019-04-29T06:42:49.432Z,38.30
2019-04-29T06:43:28.670Z,38.29
2019-04-29T06:44:15.836Z,38.25
2019-04-29T06:44:44.480Z,38.21
2019-04-29T06:45:22.004Z,38.15
2019-04-29T06:45:58.054Z,38.07
2019-04-29T06:46:34.272Z,38.02
2019-04-29T06:47:10.531Z,38.03
2019-04-29T06:47:49.059Z,38.02
2019-04-29T06:48:25.094Z,38.04
2019-04-29T06:49:10.009Z,38.04
2019-04-29T06:49:39.015Z,38.06
2019-04-29T06:50:16.132Z,38.08
2019-04-29T06:50:52.254Z,38.07
2019-04-29T06:51:28.305Z,38.06
2019-04-29T06:52:04.302Z,38.03
2019-04-29T06:52:40.419Z,37.97
2019-04-29T06:53:21.441Z,37.91
2019-04-29T06:53:56.495Z,37.87
2019-04-29T06:54:32.495Z,37.78
2019-04-29T06:55:08.707Z,37.73
2019-04-29T06:55:45.452Z,37.70
2019-04-29T06:56:21.550Z,37.64
2019-04-29T06:56:57.754Z,37.58
2019-04-29T06:57:33.763Z,37.52
2019-04-29T06:58:09.837Z,37.47
2019-04-29T06:58:48.979Z,37.44
2019-04-29T06:59:23.685Z,37.35
2019-04-29T06:59:59.823Z,37.27
2019-04-29T07:00:35.931Z,37.22
2019-04-29T07:01:12.152Z,37.11
2019-04-29T07:01:48.280Z,37.02
2019-04-29T07:02:24.605Z,36.93
2019-04-29T07:03:00.871Z,36.88
2019-04-29T07:03:37.064Z,36.80
2019-04-29T07:04:13.056Z,36.73
2019-04-29T07:04:49.112Z,36.65
2019-04-29T07:05:26.210Z,36.61
2019-04-29T07:06:02.355Z,36.56
2019-04-29T07:06:38.526Z,36.52
2019-04-29T07:07:17.667Z,36.48
2019-04-29T07:07:53.830Z,36.47
2019-04-29T07:08:29.913Z,36.44
2019-04-29T07:09:07.348Z,36.41
2019-04-29T07:09:43.415Z,36.38
2019-04-29T07:10:26.910Z,36.32
2019-04-29T07:11:01.003Z,36.28
2019-04-29T07:11:38.449Z,36.24
2019-04-29T07:12:14.736Z,36.20
2019-04-29T07:12:50.801Z,36.20
2019-04-29T07:13:27.014Z,36.17
2019-04-29T07:14:04.732Z,36.16
2019-04-29T07:14:40.985Z,36.14
2019-04-29T07:15:17.303Z,36.11
2019-04-29T07:15:53.394Z,36.10
2019-04-29T07:16:31.928Z,36.09
2019-04-29T07:17:07.326Z,36.07
2019-04-29T07:17:43.339Z,36.07
2019-04-29T07:18:19.448Z,36.07
2019-04-29T07:18:55.568Z,36.09
2019-04-29T07:19:31.728Z,36.11
2019-04-29T07:20:08.049Z,36.15
2019-04-29T07:20:45.630Z,36.15
2019-04-29T07:21:23.675Z,36.17
2019-04-29T07:21:59.756Z,36.20
2019-04-29T07:22:35.836Z,36.21
2019-04-29T07:23:11.914Z,36.22
2019-04-29T07:23:48.004Z,36.23
2019-04-29T07:24:24.087Z,36.25
2019-04-29T07:25:00.166Z,36.33
2019-04-29T07:25:36.255Z,36.35
2019-04-29T07:26:12.374Z,36.46
2019-04-29T07:26:48.517Z,36.60
2019-04-29T07:27:24.688Z,36.77
2019-04-29T07:28:00.891Z,36.89
2019-04-29T07:28:36.999Z,36.87
2019-04-29T07:29:13.034Z,36.97
2019-04-29T07:29:48.977Z,37.10
2019-04-29T07:30:25.171Z,37.15
2019-04-29T07:31:02.994Z,37.27
2019-04-29T07:31:39.166Z,37.43
2019-04-29T07:32:15.335Z,37.55
2019-04-29T07:32:51.412Z,37.66
2019-04-29T07:33:27.510Z,37.78
2019-04-29T07:34:03.697Z,37.88
2019-04-29T07:34:39.838Z,38.01
2019-04-29T07:35:16.025Z,38.12
2019-04-29T07:35:52.113Z,38.22
2019-04-29T07:36:28.162Z,38.27
2019-04-29T07:37:04.378Z,38.20
2019-04-29T07:37:40.523Z,38.18
2019-04-29T07:38:16.637Z,38.29
2019-04-29T07:38:56.603Z,38.40
2019-04-29T07:39:31.633Z,38.29
2019-04-29T07:40:09.397Z,38.19
2019-04-29T07:40:47.978Z,38.10
2019-04-29T07:41:24.129Z,38.01
2019-04-29T07:42:03.195Z,37.91
2019-04-29T07:42:38.156Z,37.84
2019-04-29T07:43:14.384Z,37.77
2019-04-29T07:43:50.467Z,37.73
2019-04-29T07:44:42.705Z,37.66
2019-04-29T07:45:43.661Z,37.57
2019-04-29T07:46:25.908Z,37.48
2019-04-29T07:47:02.555Z,37.31
2019-04-29T07:47:40.144Z,37.20
2019-04-29T07:48:16.829Z,37.15
2019-04-29T07:49:01.487Z,37.11
2019-04-29T07:49:30.816Z,37.05
2019-04-29T07:50:07.095Z,36.99
2019-04-29T07:50:43.268Z,36.95
2019-04-29T07:51:22.224Z,36.88
2019-04-29T07:51:58.331Z,36.81
2019-04-29T07:52:34.542Z,36.76
2019-04-29T07:53:10.745Z,36.72
2019-04-29T07:53:46.882Z,36.68
2019-04-29T07:54:23.035Z,36.65
2019-04-29T07:55:00.639Z,36.61
2019-04-29T07:55:36.708Z,36.60
2019-04-29T07:56:12.838Z,36.57
2019-04-29T07:56:51.438Z,36.55
2019-04-29T07:57:27.491Z,36.51
2019-04-29T07:58:03.613Z,36.52
2019-04-29T07:58:39.738Z,36.56
2019-04-29T07:59:15.735Z,36.66
2019-04-29T07:59:51.791Z,36.74
2019-04-29T08:00:35.143Z,36.84
2019-04-29T08:01:11.174Z,36.93
2019-04-29T08:01:47.241Z,36.94
2019-04-29T08:02:23.406Z,36.88
2019-04-29T08:02:59.512Z,36.78
2019-04-29T08:03:35.701Z,36.74
2019-04-29T08:04:11.874Z,36.69
2019-04-29T08:04:47.873Z,36.63
2019-04-29T08:05:23.827Z,36.60
2019-04-29T08:06:00.023Z,36.56
2019-04-29T08:06:38.110Z,36.51
2019-04-29T08:07:14.815Z,36.47
2019-04-29T08:07:51.269Z,36.40
2019-04-29T08:08:27.465Z,36.35
2019-04-29T08:09:08.019Z,36.26
2019-04-29T08:09:44.273Z,36.22
2019-04-29T08:10:23.616Z,36.17
2019-04-29T08:10:59.579Z,36.13
2019-04-29T08:11:35.817Z,36.09
2019-04-29T08:12:12.688Z,36.04
2019-04-29T08:12:49.787Z,36.00
2019-04-29T08:13:27.351Z,35.96